createdAt,value
2023-03-24T00:00:25.900Z,99926.63
2023-03-24T00:02:56.654Z,99926.08
2023-03-24T00:05:27.985Z,99919.99
2023-03-24T00:08:02.268Z,99916.09
2023-03-24T00:10:33.597Z,99913.14
2023-03-24T00:13:04.008Z,99907.71
2023-03-24T00:15:34.381Z,99905.52
2023-03-24T00:18:08.075Z,99889.65
2023-03-24T00:20:38.066Z,99889.65
2023-03-24T00:23:07.869Z,99891.25
2023-03-24T00:25:39.325Z,99887.61
2023-03-24T00:28:11.179Z,99884.86
2023-03-24T00:30:42.998Z,99882.63
2023-03-24T00:33:13.418Z,99872.29
2023-03-24T00:35:44.863Z,99866.64
2023-03-24T00:38:14.778Z,99878.19
2023-03-24T00:40:48.790Z,99883.22
2023-03-24T00:43:19.118Z,99868.38
2023-03-24T00:45:49.117Z,99863.23
2023-03-24T00:48:20.281Z,99865.52
2023-03-24T00:50:52.161Z,99856.58
2023-03-24T00:53:26.968Z,99856.63
2023-03-24T00:55:57.403Z,99856.70
2023-03-24T00:58:29.065Z,99846.67
2023-03-24T01:01:00.213Z,99839.83
2023-03-24T01:03:30.046Z,99827.52
2023-03-24T01:06:05.000Z,99840.42
2023-03-24T01:08:34.828Z,99837.17
2023-03-24T01:11:04.613Z,99829.61
2023-03-24T01:13:34.453Z,99834.98
2023-03-24T01:16:08.565Z,99819.92
2023-03-24T01:18:40.056Z,99813.21
2023-03-24T01:21:11.537Z,99812.71
2023-03-24T01:23:42.050Z,99810.53
2023-03-24T01:26:12.583Z,99808.34
2023-03-24T01:28:43.737Z,99797.84
2023-03-24T01:31:13.993Z,99798.38
2023-03-24T01:33:43.959Z,99796.05
2023-03-24T01:36:13.875Z,99782.32
2023-03-24T01:38:43.868Z,99794.13
2023-03-24T01:41:13.723Z,99786.65
2023-03-24T01:43:45.287Z,99785.91
2023-03-24T01:46:21.235Z,99772.26
2023-03-24T01:49:01.125Z,99778.83
2023-03-24T01:51:36.924Z,99780.34
2023-03-24T01:54:17.198Z,99779.11
2023-03-24T01:56:57.234Z,99772.52
2023-03-24T01:59:30.296Z,99772.06
2023-03-24T02:02:14.693Z,99759.19
2023-03-24T02:04:58.739Z,99758.52
2023-03-24T02:07:36.604Z,99757.42
2023-03-24T02:10:08.451Z,99747.56
2023-03-24T02:12:38.000Z,99753.68
2023-03-24T02:15:10.153Z,99740.17
2023-03-24T02:18:08.308Z,99740.17
2023-03-24T02:21:03.476Z,99744.25
2023-03-24T02:24:00.398Z,99734.20
2023-03-24T02:27:04.626Z,99739.20
2023-03-24T02:29:52.010Z,99740.83
2023-03-24T02:32:36.659Z,99735.77
2023-03-24T02:35:42.173Z,99739.77
2023-03-24T02:38:37.938Z,99736.39
2023-03-24T02:41:31.822Z,99746.27
2023-03-24T02:44:10.628Z,99730.72
2023-03-24T02:46:52.469Z,99724.31
2023-03-24T02:49:37.592Z,99734.60
2023-03-24T02:52:21.540Z,99754.12
2023-03-24T02:54:58.447Z,99739.97
2023-03-24T02:57:46.417Z,99722.28
2023-03-24T03:00:35.608Z,99731.97
2023-03-24T03:03:13.097Z,99740.80
2023-03-24T03:05:48.535Z,99740.80
2023-03-24T03:08:21.602Z,99758.20
2023-03-24T03:10:54.382Z,99765.81
2023-03-24T03:13:27.929Z,99797.05
2023-03-24T03:16:00.941Z,99824.42
2023-03-24T03:18:34.108Z,99816.59
2023-03-24T03:21:07.291Z,99832.03
2023-03-24T03:23:42.695Z,99835.74
2023-03-24T03:26:16.450Z,99832.12
2023-03-24T03:28:50.200Z,99832.12
2023-03-24T03:31:23.839Z,99841.23
2023-03-24T03:34:15.292Z,99830.27
2023-03-24T03:36:56.966Z,99847.27
2023-03-24T03:39:32.807Z,99853.66
2023-03-24T03:42:07.092Z,99855.67
2023-03-24T03:44:37.190Z,99860.23
2023-03-24T03:47:07.592Z,99863.86
2023-03-24T03:49:41.988Z,99875.08
2023-03-24T03:52:12.233Z,99900.97
2023-03-24T03:54:43.829Z,99907.17
2023-03-24T03:57:15.842Z,99915.25
2023-03-24T03:59:47.500Z,99899.38
2023-03-24T04:02:32.423Z,99918.23
2023-03-24T04:05:28.095Z,99928.50
2023-03-24T04:08:11.090Z,99925.58
2023-03-24T04:11:00.161Z,99933.98
2023-03-24T04:13:52.543Z,99934.09
2023-03-24T04:16:44.705Z,99940.20
2023-03-24T04:19:54.153Z,99941.30
2023-03-24T04:22:42.197Z,99949.02
2023-03-24T04:25:28.111Z,99954.94
2023-03-24T04:28:15.695Z,99968.49
2023-03-24T04:30:48.623Z,99967.39
2023-03-24T04:33:27.388Z,99971.42
2023-03-24T04:36:02.129Z,99985.56
2023-03-24T04:38:38.305Z,99997.06
2023-03-24T04:41:20.655Z,100000.27
2023-03-24T04:43:53.217Z,100001.69
2023-03-24T04:46:24.367Z,99991.45
2023-03-24T04:49:05.277Z,100000.39
2023-03-24T04:51:39.540Z,99988.35
2023-03-24T04:54:11.661Z,99999.56
2023-03-24T04:56:49.194Z,99994.03
2023-03-24T04:59:21.213Z,100010.11
2023-03-24T05:01:51.745Z,100000.63
2023-03-24T05:04:38.245Z,100012.36
2023-03-24T05:07:09.938Z,100021.77
2023-03-24T05:09:39.803Z,100026.89
2023-03-24T05:12:12.876Z,100014.60
2023-03-24T05:14:44.693Z,100017.86
2023-03-24T05:17:14.583Z,100031.09
2023-03-24T05:19:44.392Z,100031.09
2023-03-24T05:22:14.229Z,100029.63
2023-03-24T05:24:44.109Z,100033.47
2023-03-24T05:27:13.982Z,100032.25
2023-03-24T05:29:44.122Z,100049.04
2023-03-24T05:32:15.373Z,100049.22
2023-03-24T05:34:45.565Z,100054.44
2023-03-24T05:37:18.035Z,100054.44
2023-03-24T05:39:49.639Z,100059.50
2023-03-24T05:42:22.065Z,100052.88
2023-03-24T05:44:51.937Z,100068.23
2023-03-24T05:47:23.592Z,100076.71
2023-03-24T05:49:53.785Z,100085.06
2023-03-24T05:52:23.508Z,100084.86
2023-03-24T05:54:55.221Z,100094.41
2023-03-24T05:57:28.412Z,100085.20
2023-03-24T06:00:05.397Z,100081.61
2023-03-24T06:02:47.082Z,100084.36
2023-03-24T06:05:30.854Z,100081.77
2023-03-24T06:08:01.393Z,100098.15
2023-03-24T06:10:32.628Z,100100.72
2023-03-24T06:13:03.334Z,100099.09
2023-03-24T06:15:33.727Z,100102.69
2023-03-24T06:18:08.014Z,100100.85
2023-03-24T06:20:39.045Z,100110.22
2023-03-24T06:23:11.301Z,100115.56
2023-03-24T06:25:47.529Z,100105.59
2023-03-24T06:28:19.601Z,100114.87
2023-03-24T06:30:50.216Z,100111.61
2023-03-24T06:33:22.128Z,100123.80
2023-03-24T06:35:52.952Z,100116.34
2023-03-24T06:38:22.900Z,100121.52
2023-03-24T06:40:52.961Z,100124.50
2023-03-24T06:43:22.851Z,100127.70
2023-03-24T06:45:52.700Z,100137.55
2023-03-24T06:48:25.359Z,100139.58
2023-03-24T06:50:57.475Z,100140.66
2023-03-24T06:53:27.446Z,100137.33
2023-03-24T06:55:57.401Z,100144.98
2023-03-24T06:58:29.127Z,100143.10
2023-03-24T07:01:09.731Z,100146.66
2023-03-24T07:03:44.724Z,100148.32
2023-03-24T07:06:33.202Z,100157.05
2023-03-24T07:09:05.034Z,100157.05
2023-03-24T07:11:35.180Z,100167.09
2023-03-24T07:14:07.366Z,100164.64
2023-03-24T07:16:37.824Z,100155.89
2023-03-24T07:19:09.636Z,100169.47
2023-03-24T07:21:40.523Z,100166.01
2023-03-24T07:24:11.404Z,100161.53
2023-03-24T07:26:58.013Z,100170.28
2023-03-24T07:29:27.974Z,100169.75
2023-03-24T07:32:01.002Z,100169.75
2023-03-24T07:34:32.019Z,100173.29
2023-03-24T07:37:02.231Z,100162.72
2023-03-24T07:39:33.188Z,100177.66
2023-03-24T07:42:03.496Z,100175.06
2023-03-24T07:44:35.235Z,100175.09
2023-03-24T07:47:05.382Z,100177.57
2023-03-24T07:49:35.457Z,100176.50
2023-03-24T07:52:08.031Z,100188.90
2023-03-24T07:54:48.606Z,100177.33
2023-03-24T07:57:20.200Z,100180.55
2023-03-24T07:59:50.213Z,100189.23
2023-03-24T08:02:24.391Z,100189.23
2023-03-24T08:04:57.699Z,100194.59
2023-03-24T08:07:32.034Z,100196.31
2023-03-24T08:10:01.907Z,100201.59
2023-03-24T08:12:31.892Z,100203.97
2023-03-24T08:15:01.724Z,100203.51
2023-03-24T08:17:32.346Z,100197.25
2023-03-24T08:20:05.911Z,100194.11
2023-03-24T08:22:35.687Z,100205.52
2023-03-24T08:25:10.774Z,100205.45
2023-03-24T08:27:42.781Z,100205.03
2023-03-24T08:30:17.023Z,100205.93
2023-03-24T08:32:49.375Z,100205.93
2023-03-24T08:35:22.166Z,100217.45
2023-03-24T08:37:52.979Z,100209.52
2023-03-24T08:40:25.213Z,100223.06
2023-03-24T08:42:57.926Z,100221.52
2023-03-24T08:45:30.601Z,100232.80
2023-03-24T08:48:03.459Z,100230.63
2023-03-24T08:50:36.414Z,100232.16
2023-03-24T08:53:06.411Z,100247.25
2023-03-24T08:55:38.530Z,100234.81
2023-03-24T08:58:11.404Z,100235.86
2023-03-24T09:00:42.047Z,100236.09
2023-03-24T09:03:18.719Z,100236.09
2023-03-24T09:05:49.292Z,100245.39
2023-03-24T09:08:20.136Z,100248.14
2023-03-24T09:10:51.368Z,100257.49
2023-03-24T09:13:21.492Z,100255.80
2023-03-24T09:15:54.524Z,100255.80
2023-03-24T09:18:24.161Z,100255.34
2023-03-24T09:20:54.263Z,100248.48
2023-03-24T09:23:31.566Z,100258.28
2023-03-24T09:26:02.617Z,100263.70
2023-03-24T09:28:32.923Z,100263.70
2023-03-24T09:31:05.670Z,100268.98
2023-03-24T09:33:35.758Z,100268.31
2023-03-24T09:36:07.225Z,100261.84
2023-03-24T09:38:37.310Z,100273.74
2023-03-24T09:41:10.188Z,100276.67
2023-03-24T09:43:48.766Z,100276.67
2023-03-24T09:46:29.915Z,100279.81
2023-03-24T09:49:00.039Z,100286.42
2023-03-24T09:51:32.311Z,100280.05
2023-03-24T09:54:05.190Z,100291.09
2023-03-24T09:56:38.424Z,100295.41
2023-03-24T09:59:29.142Z,100284.93
2023-03-24T10:01:59.727Z,100300.70
2023-03-24T10:04:32.250Z,100300.70
2023-03-24T10:07:10.756Z,100295.67
2023-03-24T10:09:40.819Z,100303.20
2023-03-24T10:12:39.491Z,100306.41
2023-03-24T10:15:12.130Z,100290.86
2023-03-24T10:18:01.220Z,100296.91
2023-03-24T10:20:36.445Z,100293.63
2023-03-24T10:23:28.843Z,100293.95
2023-03-24T10:26:24.237Z,100298.02
2023-03-24T10:29:08.998Z,100306.70
2023-03-24T10:31:41.568Z,100297.87
2023-03-24T10:34:14.352Z,100288.61
2023-03-24T10:36:45.124Z,100296.17
2023-03-24T10:39:22.477Z,100291.65
2023-03-24T10:41:52.001Z,100294.87
2023-03-24T10:44:23.300Z,100311.13
2023-03-24T10:46:56.251Z,100307.52
2023-03-24T10:49:26.717Z,100315.69
2023-03-24T10:52:01.297Z,100310.32
2023-03-24T10:54:32.661Z,100316.52
2023-03-24T10:57:05.638Z,100336.09
2023-03-24T10:59:59.857Z,100333.11
2023-03-24T11:02:32.376Z,100328.33
2023-03-24T11:05:14.343Z,100332.25
2023-03-24T11:07:49.529Z,100332.61
2023-03-24T11:10:21.902Z,100325.58
2023-03-24T11:13:02.384Z,100323.05
2023-03-24T11:15:35.034Z,100324.02
2023-03-24T11:18:16.217Z,100324.62
2023-03-24T11:20:49.217Z,100334.48
2023-03-24T11:23:28.071Z,100310.88
2023-03-24T11:26:15.912Z,100310.88
2023-03-24T11:28:48.806Z,100320.73
2023-03-24T11:31:26.365Z,100327.55
2023-03-24T11:34:02.777Z,100324.99
2023-03-24T11:36:37.337Z,100324.11
2023-03-24T11:39:19.422Z,100324.38
2023-03-24T11:42:12.650Z,100323.66
2023-03-24T11:44:53.778Z,100321.20
2023-03-24T11:47:35.163Z,100311.19
2023-03-24T11:50:08.159Z,100311.62
2023-03-24T11:52:50.127Z,100317.22
2023-03-24T11:55:31.453Z,100320.70
2023-03-24T11:58:13.216Z,100330.94
2023-03-24T12:00:55.659Z,100345.61
2023-03-24T12:03:40.446Z,100348.05
2023-03-24T12:06:31.825Z,100341.16
2023-03-24T12:09:10.615Z,100354.77
2023-03-24T12:11:59.638Z,100345.66
2023-03-24T12:14:35.618Z,100342.17
2023-03-24T12:17:11.130Z,100345.37
2023-03-24T12:19:55.869Z,100368.38
2023-03-24T12:22:44.690Z,100351.27
2023-03-24T12:25:20.471Z,100359.10
2023-03-24T12:28:06.118Z,100359.10
2023-03-24T12:31:03.277Z,100361.09
2023-03-24T12:33:45.036Z,100349.98
2023-03-24T12:36:28.270Z,100348.77
2023-03-24T12:39:10.114Z,100346.58
2023-03-24T12:41:51.664Z,100340.05
2023-03-24T12:44:24.489Z,100337.68
2023-03-24T12:47:03.124Z,100340.52
2023-03-24T12:49:44.783Z,100334.86
2023-03-24T12:52:23.267Z,100327.72
2023-03-24T12:55:23.025Z,100321.11
2023-03-24T12:58:06.971Z,100308.23
2023-03-24T13:00:51.499Z,100305.64
2023-03-24T13:03:24.478Z,100304.45
2023-03-24T13:06:04.645Z,100301.80
2023-03-24T13:08:32.219Z,100311.84
2023-03-24T13:11:05.092Z,100296.41
2023-03-24T13:13:37.984Z,100296.41
2023-03-24T13:16:12.500Z,100280.52
2023-03-24T13:18:48.670Z,100278.09
2023-03-24T13:21:20.896Z,100278.09
2023-03-24T13:23:59.969Z,100274.53
2023-03-24T13:26:42.607Z,100266.94
2023-03-24T13:29:18.501Z,100255.52
2023-03-24T13:32:07.722Z,100264.70
2023-03-24T13:34:40.822Z,100258.57
2023-03-24T13:37:27.836Z,100270.67
2023-03-24T13:40:04.580Z,100276.80
2023-03-24T13:42:34.462Z,100281.59
2023-03-24T13:45:06.568Z,100311.33
2023-03-24T13:48:09.532Z,100319.30
2023-03-24T13:50:42.462Z,100324.45
2023-03-24T13:53:17.225Z,100338.71
2023-03-24T13:55:52.233Z,100328.31
2023-03-24T13:58:24.809Z,100313.12
2023-03-24T14:01:09.405Z,100327.48
2023-03-24T14:03:48.343Z,100320.84
2023-03-24T14:06:19.109Z,100316.42
2023-03-24T14:08:57.786Z,100313.41
2023-03-24T14:11:37.837Z,100316.00
2023-03-24T14:14:17.956Z,100321.83
2023-03-24T14:17:06.980Z,100311.02
2023-03-24T14:19:57.079Z,100317.37
2023-03-24T14:22:32.551Z,100317.37
2023-03-24T14:25:05.373Z,100333.66
2023-03-24T14:27:43.845Z,100331.13
2023-03-24T14:30:25.067Z,100344.48
2023-03-24T14:32:57.285Z,100333.58
2023-03-24T14:35:38.727Z,100338.54
2023-03-24T14:38:22.654Z,100328.68
2023-03-24T14:40:55.699Z,100320.41
2023-03-24T14:43:43.460Z,100305.47
2023-03-24T14:46:25.116Z,100291.30
2023-03-24T14:49:07.260Z,100295.06
2023-03-24T14:51:43.326Z,100285.06
2023-03-24T14:54:21.808Z,100292.95
2023-03-24T14:56:54.370Z,100303.52
2023-03-24T14:59:41.951Z,100296.88
2023-03-24T15:02:32.349Z,100305.09
2023-03-24T15:05:17.035Z,100309.13
2023-03-24T15:07:49.922Z,100303.50
2023-03-24T15:10:21.075Z,100305.57
2023-03-24T15:12:51.858Z,100297.25
2023-03-24T15:15:24.218Z,100296.25
2023-03-24T15:17:54.275Z,100288.94
2023-03-24T15:20:33.670Z,100287.08
2023-03-24T15:23:13.519Z,100285.76
2023-03-24T15:25:43.429Z,100290.23
2023-03-24T15:28:30.755Z,100288.20
2023-03-24T15:31:01.220Z,100275.02
2023-03-24T15:33:31.333Z,100276.75
2023-03-24T15:36:02.232Z,100268.65
2023-03-24T15:38:34.126Z,100269.92
2023-03-24T15:41:06.951Z,100263.14
2023-03-24T15:43:45.484Z,100267.43
2023-03-24T15:46:31.720Z,100262.53
2023-03-24T15:49:03.512Z,100261.84
2023-03-24T15:51:50.820Z,100263.04
2023-03-24T15:54:24.076Z,100262.36
2023-03-24T15:57:04.638Z,100256.27
2023-03-24T15:59:38.192Z,100258.34
2023-03-24T16:02:29.217Z,100254.76
2023-03-24T16:07:37.613Z,100259.28
2023-03-24T16:10:11.142Z,100255.46
2023-03-24T16:12:43.857Z,100250.94
2023-03-24T16:15:14.610Z,100251.20
2023-03-24T16:17:44.884Z,100246.45
2023-03-24T16:20:23.133Z,100244.08
2023-03-24T16:22:53.032Z,100239.53
2023-03-24T16:25:22.843Z,100236.78
2023-03-24T16:27:52.644Z,100231.41
2023-03-24T16:30:25.249Z,100229.11
2023-03-24T16:32:55.772Z,100226.63
2023-03-24T16:35:25.727Z,100224.91
2023-03-24T16:37:55.667Z,100214.09
2023-03-24T16:40:43.079Z,100215.05
2023-03-24T16:43:12.944Z,100215.61
2023-03-24T16:45:45.732Z,100205.81
2023-03-24T16:48:15.738Z,100213.36
2023-03-24T16:50:50.537Z,100217.96
2023-03-24T16:53:21.249Z,100217.96
2023-03-24T16:55:51.050Z,100225.05
2023-03-24T16:58:20.915Z,100222.53
2023-03-24T17:00:51.984Z,100232.00
2023-03-24T17:03:23.947Z,100225.58
2023-03-24T17:05:53.805Z,100228.45
2023-03-24T17:08:24.157Z,100230.47
2023-03-24T17:10:55.681Z,100231.94
2023-03-24T17:13:27.061Z,100231.94
2023-03-24T17:15:57.500Z,100236.10
2023-03-24T17:18:27.013Z,100238.33
2023-03-24T17:20:57.387Z,100241.34
2023-03-24T17:23:27.278Z,100245.83
2023-03-24T17:25:56.831Z,100247.14
2023-03-24T17:28:26.436Z,100249.49
2023-03-24T17:30:56.325Z,100248.60
2023-03-24T17:33:26.107Z,100241.58
2023-03-24T17:35:56.330Z,100236.44
2023-03-24T17:38:27.046Z,100236.05
2023-03-24T17:41:04.066Z,100233.13
2023-03-24T17:43:34.005Z,100231.57
2023-03-24T17:46:05.281Z,100227.45
2023-03-24T17:48:36.339Z,100220.91
2023-03-24T17:51:06.990Z,100227.75
2023-03-24T17:53:36.620Z,100234.63
2023-03-24T17:56:08.628Z,100232.06
2023-03-24T17:58:38.430Z,100227.93
2023-03-24T18:01:08.743Z,100225.62
2023-03-24T18:03:38.999Z,100225.62
2023-03-24T18:06:13.283Z,100228.14
2023-03-24T18:08:43.609Z,100227.52
2023-03-24T18:11:15.643Z,100231.80
2023-03-24T18:13:45.515Z,100226.69
2023-03-24T18:16:21.187Z,100227.55
2023-03-24T18:18:48.173Z,100222.85
2023-03-24T18:21:18.893Z,100220.34
2023-03-24T18:23:49.159Z,100230.31
2023-03-24T18:26:19.797Z,100222.02
2023-03-24T18:28:49.653Z,100220.53
2023-03-24T18:31:22.064Z,100228.20
2023-03-24T18:33:52.987Z,100229.63
2023-03-24T18:36:29.400Z,100217.77
2023-03-24T18:39:01.807Z,100222.67
2023-03-24T18:41:32.136Z,100230.02
2023-03-24T18:44:02.000Z,100240.44
2023-03-24T18:46:32.231Z,100252.21
2023-03-24T18:49:02.035Z,100242.20
2023-03-24T18:51:33.077Z,100246.59
2023-03-24T18:54:03.072Z,100246.59
2023-03-24T18:56:32.889Z,100250.80
2023-03-24T18:59:02.665Z,100248.31
2023-03-24T19:01:33.448Z,100254.67
2023-03-24T19:04:03.720Z,100249.52
2023-03-24T19:06:34.314Z,100240.61
2023-03-24T19:09:05.413Z,100248.41
2023-03-24T19:11:35.352Z,100249.49
2023-03-24T19:14:07.064Z,100245.22
2023-03-24T19:16:36.998Z,100252.62
2023-03-24T19:19:07.884Z,100243.34
2023-03-24T19:21:38.359Z,100251.71
2023-03-24T19:24:09.664Z,100252.03
2023-03-24T19:26:40.268Z,100255.13
2023-03-24T19:29:10.207Z,100253.36
2023-03-24T19:31:40.337Z,100246.69
2023-03-24T19:34:11.252Z,100250.70
2023-03-24T19:36:42.764Z,100239.48
2023-03-24T19:39:14.832Z,100234.13
2023-03-24T19:41:44.848Z,100229.42
2023-03-24T19:44:14.695Z,100232.84
2023-03-24T19:46:44.572Z,100230.81
2023-03-24T19:49:15.796Z,100225.48
2023-03-24T19:51:46.080Z,100225.48
2023-03-24T19:54:15.864Z,100217.30
2023-03-24T19:56:45.839Z,100220.81
2023-03-24T19:59:15.669Z,100224.48
2023-03-24T20:01:45.677Z,100226.16
2023-03-24T20:04:15.491Z,100223.69
2023-03-24T20:06:45.933Z,100224.72
2023-03-24T20:09:16.064Z,100226.46
2023-03-24T20:11:45.977Z,100224.98
2023-03-24T20:14:17.413Z,100218.73
2023-03-24T20:16:47.316Z,100219.52
2023-03-24T20:19:17.169Z,100222.14
2023-03-24T20:21:47.010Z,100207.25
2023-03-24T20:24:16.925Z,100211.45
2023-03-24T20:26:48.419Z,100203.13
2023-03-24T20:29:18.412Z,100203.13
2023-03-24T20:31:48.220Z,100208.01
2023-03-24T20:34:18.117Z,100205.23
2023-03-24T20:36:47.966Z,100200.61
2023-03-24T20:39:18.035Z,100206.06
2023-03-24T20:41:47.938Z,100212.52
2023-03-24T20:44:17.456Z,100210.30
2023-03-24T20:46:47.252Z,100208.31
2023-03-24T20:49:17.587Z,100216.30
2023-03-24T20:51:47.584Z,100216.30
2023-03-24T20:54:17.126Z,100215.27
2023-03-24T20:56:46.982Z,100218.55
2023-03-24T20:59:18.226Z,100218.00
2023-03-24T21:01:48.555Z,100216.81
2023-03-24T21:04:19.796Z,100216.28
2023-03-24T21:06:49.657Z,100220.29
2023-03-24T21:09:21.391Z,100205.11
2023-03-24T21:11:51.488Z,100209.09
2023-03-24T21:14:21.340Z,100210.55
2023-03-24T21:16:51.653Z,100207.16
2023-03-24T21:19:22.733Z,100211.73
2023-03-24T21:21:54.280Z,100210.55
2023-03-24T21:24:24.506Z,100208.94
2023-03-24T21:26:55.956Z,100213.45
2023-03-24T21:29:27.088Z,100210.64
2023-03-24T21:31:57.258Z,100207.05
2023-03-24T21:34:27.352Z,100221.28
2023-03-24T21:36:57.155Z,100217.70
2023-03-24T21:39:27.057Z,100221.09
2023-03-24T21:41:56.943Z,100223.17
2023-03-24T21:44:26.443Z,100213.97
2023-03-24T21:46:56.447Z,100222.65
2023-03-24T21:49:26.233Z,100233.89
2023-03-24T21:51:57.163Z,100225.30
2023-03-24T21:54:26.956Z,100225.77
2023-03-24T21:56:56.922Z,100222.45
2023-03-24T21:59:27.007Z,100220.45
2023-03-24T22:01:57.492Z,100215.76
2023-03-24T22:04:27.617Z,100219.55
2023-03-24T22:06:57.747Z,100224.25
2023-03-24T22:09:27.893Z,100219.18
2023-03-24T22:11:58.888Z,100226.87
2023-03-24T22:14:29.321Z,100217.92
2023-03-24T22:16:59.200Z,100224.52
2023-03-24T22:19:29.041Z,100230.73
2023-03-24T22:22:00.779Z,100223.95
2023-03-24T22:24:31.731Z,100229.38
2023-03-24T22:27:02.066Z,100223.80
2023-03-24T22:29:31.876Z,100227.80
2023-03-24T22:32:01.992Z,100230.25
2023-03-24T22:34:31.816Z,100221.41
2023-03-24T22:37:01.566Z,100226.84
2023-03-24T22:39:33.124Z,100227.28
2023-03-24T22:42:03.166Z,100235.16
2023-03-24T22:44:33.746Z,100229.76
2023-03-24T22:47:04.382Z,100240.19
2023-03-24T22:49:34.361Z,100238.92
2023-03-24T22:52:06.943Z,100242.43
2023-03-24T22:54:36.758Z,100245.23
2023-03-24T22:57:06.684Z,100235.09
2023-03-24T22:59:36.887Z,100235.00
2023-03-24T23:02:10.346Z,100239.76
2023-03-24T23:04:41.245Z,100241.02
2023-03-24T23:07:11.228Z,100235.17
2023-03-24T23:09:42.899Z,100233.31
2023-03-24T23:12:13.473Z,100235.09
2023-03-24T23:14:44.678Z,100234.03
2023-03-24T23:17:15.729Z,100241.97
2023-03-24T23:19:45.554Z,100239.45
2023-03-24T23:22:15.704Z,100234.32
2023-03-24T23:24:47.801Z,100231.73
2023-03-24T23:27:18.120Z,100235.16
2023-03-24T23:29:48.093Z,100240.39
2023-03-24T23:32:18.093Z,100247.55
2023-03-24T23:34:48.651Z,100240.83
2023-03-24T23:37:18.822Z,100246.14
2023-03-24T23:39:50.284Z,100243.34
2023-03-24T23:42:20.149Z,100237.72
2023-03-24T23:44:49.947Z,100233.84
2023-03-24T23:47:19.821Z,100245.15
2023-03-24T23:49:49.630Z,100240.63
2023-03-24T23:52:19.383Z,100237.59
2023-03-24T23:54:49.655Z,100236.99
2023-03-24T23:57:19.418Z,100231.74
2023-03-24T23:59:49.500Z,100237.57
